Council Hill, Oklahoma
Current Conditions -  °F | °C
As of 9:53 PM on Thursday 27 Nov 2014 (Local Time) from KMKO Reporting Station
Clear Clear  
Wind Chill: -1°   Ceiling: Unl
Heat Index:   Visibility: 10mi
Dew Point: -2°   Wind: 9mph
Humidity: 70%   Direction: 160°SSE
Pressure: 30.36"   Gusts: NA
Location:  35.56°N, 95.65°W
Report Text: KMKO 280353Z AUTO 16008KT 10SM CLR 03/M02 A3036 RMK AO2 SLP283 T00281022
Loading
Personal Weather Stations






























Interactive Weather Map New forecast layout! Learn more

10-Day Weather Forecast

Advertisements
Track Severe Weather on mobile